sensor_id;sensor_type;location;lat;lon;timestamp;P1;durP1;ratioP1;P2;durP2;ratioP2
65691;SDS011;52411;52.716;6.696;2024-02-15T00:02:20;12.13;;;5.43;;
65691;SDS011;52411;52.716;6.696;2024-02-15T00:04:45;14.73;;;5.45;;
65691;SDS011;52411;52.716;6.696;2024-02-15T00:07:11;12.02;;;5.32;;
65691;SDS011;52411;52.716;6.696;2024-02-15T00:09:37;9.93;;;4.68;;
65691;SDS011;52411;52.716;6.696;2024-02-15T00:12:02;9.73;;;4.55;;
65691;SDS011;52411;52.716;6.696;2024-02-15T00:14:28;10.02;;;5.05;;
65691;SDS011;52411;52.716;6.696;2024-02-15T00:16:54;9.15;;;4.28;;
65691;SDS011;52411;52.716;6.696;2024-02-15T00:19:20;9.38;;;4.10;;
65691;SDS011;52411;52.716;6.696;2024-02-15T00:21:46;7.90;;;4.30;;
65691;SDS011;52411;52.716;6.696;2024-02-15T00:24:12;6.95;;;3.75;;
65691;SDS011;52411;52.716;6.696;2024-02-15T00:26:39;11.05;;;3.80;;
65691;SDS011;52411;52.716;6.696;2024-02-15T00:29:06;8.27;;;3.78;;
65691;SDS011;52411;52.716;6.696;2024-02-15T00:31:32;10.48;;;3.88;;
65691;SDS011;52411;52.716;6.696;2024-02-15T00:33:58;8.30;;;3.70;;
65691;SDS011;52411;52.716;6.696;2024-02-15T00:41:35;7.45;;;3.58;;
65691;SDS011;52411;52.716;6.696;2024-02-15T00:47:42;9.23;;;3.65;;
65691;SDS011;52411;52.716;6.696;2024-02-15T00:50:10;8.38;;;4.28;;
65691;SDS011;52411;52.716;6.696;2024-02-15T00:52:36;10.85;;;4.03;;
65691;SDS011;52411;52.716;6.696;2024-02-15T00:55:01;9.45;;;4.18;;
65691;SDS011;52411;52.716;6.696;2024-02-15T00:57:27;8.43;;;3.78;;
65691;SDS011;52411;52.716;6.696;2024-02-15T00:59:53;10.98;;;4.00;;
65691;SDS011;52411;52.716;6.696;2024-02-15T01:02:18;9.88;;;3.90;;
65691;SDS011;52411;52.716;6.696;2024-02-15T01:04:44;8.45;;;3.63;;
65691;SDS011;52411;52.716;6.696;2024-02-15T01:07:12;11.40;;;4.20;;
65691;SDS011;52411;52.716;6.696;2024-02-15T01:09:38;11.98;;;4.13;;
65691;SDS011;52411;52.716;6.696;2024-02-15T01:12:04;10.48;;;4.13;;
65691;SDS011;52411;52.716;6.696;2024-02-15T01:14:30;11.88;;;4.47;;
65691;SDS011;52411;52.716;6.696;2024-02-15T01:16:56;8.88;;;3.85;;
65691;SDS011;52411;52.716;6.696;2024-02-15T01:19:22;10.60;;;4.30;;
65691;SDS011;52411;52.716;6.696;2024-02-15T01:21:48;7.45;;;4.07;;
65691;SDS011;52411;52.716;6.696;2024-02-15T01:24:13;9.07;;;4.03;;
65691;SDS011;52411;52.716;6.696;2024-02-15T01:26:39;12.15;;;4.18;;
65691;SDS011;52411;52.716;6.696;2024-02-15T01:29:05;9.43;;;4.50;;
65691;SDS011;52411;52.716;6.696;2024-02-15T01:31:30;10.60;;;4.68;;
65691;SDS011;52411;52.716;6.696;2024-02-15T01:33:56;14.27;;;4.78;;
65691;SDS011;52411;52.716;6.696;2024-02-15T01:36:22;9.35;;;4.38;;
65691;SDS011;52411;52.716;6.696;2024-02-15T01:38:48;10.88;;;3.97;;
65691;SDS011;52411;52.716;6.696;2024-02-15T01:41:13;9.07;;;4.13;;
65691;SDS011;52411;52.716;6.696;2024-02-15T01:43:43;14.52;;;4.55;;
65691;SDS011;52411;52.716;6.696;2024-02-15T01:46:10;9.93;;;4.25;;
65691;SDS011;52411;52.716;6.696;2024-02-15T01:48:36;14.40;;;4.32;;
65691;SDS011;52411;52.716;6.696;2024-02-15T01:51:02;9.70;;;4.40;;
65691;SDS011;52411;52.716;6.696;2024-02-15T01:53:29;13.38;;;4.68;;
65691;SDS011;52411;52.716;6.696;2024-02-15T01:55:55;14.00;;;4.93;;
65691;SDS011;52411;52.716;6.696;2024-02-15T01:58:22;10.45;;;4.47;;
65691;SDS011;52411;52.716;6.696;2024-02-15T02:00:50;9.90;;;4.93;;
65691;SDS011;52411;52.716;6.696;2024-02-15T02:03:16;14.32;;;4.95;;
65691;SDS011;52411;52.716;6.696;2024-02-15T02:05:42;11.70;;;4.72;;
65691;SDS011;52411;52.716;6.696;2024-02-15T02:08:08;12.38;;;4.18;;
65691;SDS011;52411;52.716;6.696;2024-02-15T02:10:37;9.70;;;4.15;;
65691;SDS011;52411;52.716;6.696;2024-02-15T02:13:04;8.02;;;3.90;;
65691;SDS011;52411;52.716;6.696;2024-02-15T02:15:33;9.27;;;3.85;;
65691;SDS011;52411;52.716;6.696;2024-02-15T02:18:02;8.77;;;4.50;;
65691;SDS011;52411;52.716;6.696;2024-02-15T02:20:31;8.85;;;4.00;;
65691;SDS011;52411;52.716;6.696;2024-02-15T02:23:00;8.48;;;4.00;;
65691;SDS011;52411;52.716;6.696;2024-02-15T02:25:27;10.75;;;4.70;;
65691;SDS011;52411;52.716;6.696;2024-02-15T02:27:53;11.05;;;4.05;;
65691;SDS011;52411;52.716;6.696;2024-02-15T02:30:21;9.10;;;4.00;;
65691;SDS011;52411;52.716;6.696;2024-02-15T02:32:47;11.40;;;4.15;;
65691;SDS011;52411;52.716;6.696;2024-02-15T02:35:13;9.40;;;4.43;;
65691;SDS011;52411;52.716;6.696;2024-02-15T02:37:41;12.13;;;4.75;;
65691;SDS011;52411;52.716;6.696;2024-02-15T02:40:07;9.20;;;4.95;;
65691;SDS011;52411;52.716;6.696;2024-02-15T02:45:15;9.77;;;5.05;;
65691;SDS011;52411;52.716;6.696;2024-02-15T02:47:41;11.80;;;5.28;;
65691;SDS011;52411;52.716;6.696;2024-02-15T02:50:06;12.35;;;5.22;;
65691;SDS011;52411;52.716;6.696;2024-02-15T02:52:33;11.43;;;5.35;;
65691;SDS011;52411;52.716;6.696;2024-02-15T02:54:58;14.02;;;5.68;;
65691;SDS011;52411;52.716;6.696;2024-02-15T02:57:24;11.45;;;5.05;;
65691;SDS011;52411;52.716;6.696;2024-02-15T02:59:50;12.68;;;5.32;;
65691;SDS011;52411;52.716;6.696;2024-02-15T03:02:16;11.80;;;5.00;;
65691;SDS011;52411;52.716;6.696;2024-02-15T03:04:42;12.30;;;5.00;;
65691;SDS011;52411;52.716;6.696;2024-02-15T03:07:08;11.70;;;5.45;;
65691;SDS011;52411;52.716;6.696;2024-02-15T03:09:34;14.18;;;5.35;;
65691;SDS011;52411;52.716;6.696;2024-02-15T03:12:02;10.80;;;5.15;;
65691;SDS011;52411;52.716;6.696;2024-02-15T03:14:28;13.60;;;5.38;;
65691;SDS011;52411;52.716;6.696;2024-02-15T03:16:55;12.35;;;4.90;;
65691;SDS011;52411;52.716;6.696;2024-02-15T03:19:21;10.60;;;4.95;;
65691;SDS011;52411;52.716;6.696;2024-02-15T03:21:47;10.13;;;5.22;;
65691;SDS011;52411;52.716;6.696;2024-02-15T03:24:13;12.85;;;5.35;;
65691;SDS011;52411;52.716;6.696;2024-02-15T03:26:39;12.15;;;5.35;;
65691;SDS011;52411;52.716;6.696;2024-02-15T03:29:05;10.75;;;5.03;;
65691;SDS011;52411;52.716;6.696;2024-02-15T03:31:33;14.63;;;4.43;;
65691;SDS011;52411;52.716;6.696;2024-02-15T03:34:01;12.13;;;4.30;;
65691;SDS011;52411;52.716;6.696;2024-02-15T03:36:30;9.63;;;4.47;;
65691;SDS011;52411;52.716;6.696;2024-02-15T03:38:56;8.77;;;4.10;;
65691;SDS011;52411;52.716;6.696;2024-02-15T03:41:22;10.13;;;4.72;;
65691;SDS011;52411;52.716;6.696;2024-02-15T03:43:47;11.63;;;4.40;;
65691;SDS011;52411;52.716;6.696;2024-02-15T03:46:13;9.75;;;4.60;;
65691;SDS011;52411;52.716;6.696;2024-02-15T03:48:41;15.73;;;4.97;;
65691;SDS011;52411;52.716;6.696;2024-02-15T03:51:09;11.55;;;4.65;;
65691;SDS011;52411;52.716;6.696;2024-02-15T03:53:34;10.23;;;4.97;;
65691;SDS011;52411;52.716;6.696;2024-02-15T03:56:02;10.18;;;5.03;;
65691;SDS011;52411;52.716;6.696;2024-02-15T03:58:28;11.15;;;5.07;;
65691;SDS011;52411;52.716;6.696;2024-02-15T04:00:57;15.40;;;4.95;;
65691;SDS011;52411;52.716;6.696;2024-02-15T04:03:23;11.10;;;5.00;;
65691;SDS011;52411;52.716;6.696;2024-02-15T04:05:49;13.63;;;5.65;;
65691;SDS011;52411;52.716;6.696;2024-02-15T04:08:15;17.75;;;6.00;;
65691;SDS011;52411;52.716;6.696;2024-02-15T04:10:41;11.32;;;5.35;;
65691;SDS011;52411;52.716;6.696;2024-02-15T04:13:07;13.75;;;5.70;;
65691;SDS011;52411;52.716;6.696;2024-02-15T04:15:32;12.75;;;5.53;;
65691;SDS011;52411;52.716;6.696;2024-02-15T04:17:58;11.50;;;5.25;;
65691;SDS011;52411;52.716;6.696;2024-02-15T04:20:24;15.73;;;6.30;;
65691;SDS011;52411;52.716;6.696;2024-02-15T04:22:51;11.98;;;6.03;;
65691;SDS011;52411;52.716;6.696;2024-02-15T04:25:17;15.20;;;6.50;;
65691;SDS011;52411;52.716;6.696;2024-02-15T04:27:45;15.18;;;5.72;;
65691;SDS011;52411;52.716;6.696;2024-02-15T04:30:14;11.00;;;5.47;;
65691;SDS011;52411;52.716;6.696;2024-02-15T04:32:40;16.13;;;6.05;;
65691;SDS011;52411;52.716;6.696;2024-02-15T04:35:06;13.93;;;6.35;;
65691;SDS011;52411;52.716;6.696;2024-02-15T04:37:32;15.45;;;5.72;;
65691;SDS011;52411;52.716;6.696;2024-02-15T04:39:59;15.07;;;6.40;;
65691;SDS011;52411;52.716;6.696;2024-02-15T04:42:35;17.08;;;6.93;;
65691;SDS011;52411;52.716;6.696;2024-02-15T04:45:03;12.63;;;5.55;;
65691;SDS011;52411;52.716;6.696;2024-02-15T04:47:33;14.75;;;6.45;;
65691;SDS011;52411;52.716;6.696;2024-02-15T04:49:59;12.40;;;5.93;;
65691;SDS011;52411;52.716;6.696;2024-02-15T04:52:25;13.80;;;6.63;;
65691;SDS011;52411;52.716;6.696;2024-02-15T04:54:51;15.60;;;6.85;;
65691;SDS011;52411;52.716;6.696;2024-02-15T04:57:19;14.48;;;6.47;;
65691;SDS011;52411;52.716;6.696;2024-02-15T04:59:45;16.27;;;6.88;;
65691;SDS011;52411;52.716;6.696;2024-02-15T05:02:12;15.20;;;7.10;;
65691;SDS011;52411;52.716;6.696;2024-02-15T05:04:38;15.27;;;7.82;;
65691;SDS011;52411;52.716;6.696;2024-02-15T05:07:07;14.13;;;6.30;;
65691;SDS011;52411;52.716;6.696;2024-02-15T05:09:33;11.63;;;6.28;;
65691;SDS011;52411;52.716;6.696;2024-02-15T05:11:59;14.07;;;6.25;;
65691;SDS011;52411;52.716;6.696;2024-02-15T05:14:27;13.77;;;6.80;;
65691;SDS011;52411;52.716;6.696;2024-02-15T05:16:53;17.48;;;6.70;;
65691;SDS011;52411;52.716;6.696;2024-02-15T05:19:19;16.63;;;5.93;;
65691;SDS011;52411;52.716;6.696;2024-02-15T05:21:45;15.50;;;6.57;;
65691;SDS011;52411;52.716;6.696;2024-02-15T05:24:15;17.13;;;6.40;;
65691;SDS011;52411;52.716;6.696;2024-02-15T05:26:41;11.77;;;5.50;;
65691;SDS011;52411;52.716;6.696;2024-02-15T05:29:11;10.48;;;5.72;;
65691;SDS011;52411;52.716;6.696;2024-02-15T05:31:38;14.30;;;6.25;;
65691;SDS011;52411;52.716;6.696;2024-02-15T05:34:05;15.57;;;6.32;;
65691;SDS011;52411;52.716;6.696;2024-02-15T05:39:03;11.30;;;5.05;;
65691;SDS011;52411;52.716;6.696;2024-02-15T05:41:29;12.05;;;5.93;;
65691;SDS011;52411;52.716;6.696;2024-02-15T05:43:55;11.95;;;6.03;;
65691;SDS011;52411;52.716;6.696;2024-02-15T05:46:23;12.93;;;5.95;;
65691;SDS011;52411;52.716;6.696;2024-02-15T05:48:49;12.95;;;5.82;;
65691;SDS011;52411;52.716;6.696;2024-02-15T05:51:19;11.98;;;5.60;;
65691;SDS011;52411;52.716;6.696;2024-02-15T05:53:44;12.13;;;5.45;;
65691;SDS011;52411;52.716;6.696;2024-02-15T05:56:10;13.38;;;6.47;;
65691;SDS011;52411;52.716;6.696;2024-02-15T05:58:36;13.13;;;5.72;;
65691;SDS011;52411;52.716;6.696;2024-02-15T06:01:03;10.98;;;5.05;;
65691;SDS011;52411;52.716;6.696;2024-02-15T06:03:31;11.38;;;5.93;;
65691;SDS011;52411;52.716;6.696;2024-02-15T06:05:59;12.18;;;6.60;;
65691;SDS011;52411;52.716;6.696;2024-02-15T06:08:27;10.80;;;5.80;;
65691;SDS011;52411;52.716;6.696;2024-02-15T06:10:56;13.98;;;5.95;;
65691;SDS011;52411;52.716;6.696;2024-02-15T06:13:22;14.02;;;5.70;;
65691;SDS011;52411;52.716;6.696;2024-02-15T06:15:49;13.23;;;5.85;;
65691;SDS011;52411;52.716;6.696;2024-02-15T06:18:21;15.07;;;5.93;;
65691;SDS011;52411;52.716;6.696;2024-02-15T06:20:50;12.65;;;6.10;;
65691;SDS011;52411;52.716;6.696;2024-02-15T06:23:16;13.18;;;6.30;;
65691;SDS011;52411;52.716;6.696;2024-02-15T06:25:42;12.50;;;5.20;;
65691;SDS011;52411;52.716;6.696;2024-02-15T06:28:08;12.50;;;5.40;;
65691;SDS011;52411;52.716;6.696;2024-02-15T06:30:53;11.00;;;5.03;;
65691;SDS011;52411;52.716;6.696;2024-02-15T06:33:37;13.18;;;5.43;;
65691;SDS011;52411;52.716;6.696;2024-02-15T06:36:22;11.45;;;5.10;;
65691;SDS011;52411;52.716;6.696;2024-02-15T06:39:06;13.43;;;5.13;;
65691;SDS011;52411;52.716;6.696;2024-02-15T06:41:50;12.45;;;5.25;;
65691;SDS011;52411;52.716;6.696;2024-02-15T06:44:17;9.48;;;5.28;;
65691;SDS011;52411;52.716;6.696;2024-02-15T06:46:43;12.05;;;4.88;;
65691;SDS011;52411;52.716;6.696;2024-02-15T06:49:08;11.63;;;5.00;;
65691;SDS011;52411;52.716;6.696;2024-02-15T06:51:34;9.98;;;4.68;;
65691;SDS011;52411;52.716;6.696;2024-02-15T06:53:59;12.52;;;4.65;;
65691;SDS011;52411;52.716;6.696;2024-02-15T06:56:25;10.25;;;4.80;;
65691;SDS011;52411;52.716;6.696;2024-02-15T06:58:51;12.75;;;5.15;;
65691;SDS011;52411;52.716;6.696;2024-02-15T07:01:16;10.30;;;4.50;;
65691;SDS011;52411;52.716;6.696;2024-02-15T07:03:43;9.45;;;4.63;;
65691;SDS011;52411;52.716;6.696;2024-02-15T07:06:12;10.07;;;4.75;;
65691;SDS011;52411;52.716;6.696;2024-02-15T07:08:42;11.73;;;4.80;;
65691;SDS011;52411;52.716;6.696;2024-02-15T07:11:07;10.68;;;4.55;;
65691;SDS011;52411;52.716;6.696;2024-02-15T07:13:34;9.95;;;4.53;;
65691;SDS011;52411;52.716;6.696;2024-02-15T07:16:02;10.65;;;4.55;;
65691;SDS011;52411;52.716;6.696;2024-02-15T07:18:32;7.95;;;4.63;;
65691;SDS011;52411;52.716;6.696;2024-02-15T07:20:58;9.25;;;4.50;;
65691;SDS011;52411;52.716;6.696;2024-02-15T07:23:26;11.23;;;4.55;;
65691;SDS011;52411;52.716;6.696;2024-02-15T07:25:52;9.15;;;4.60;;
65691;SDS011;52411;52.716;6.696;2024-02-15T07:28:19;11.98;;;5.20;;
65691;SDS011;52411;52.716;6.696;2024-02-15T07:30:46;10.52;;;4.32;;
65691;SDS011;52411;52.716;6.696;2024-02-15T07:33:14;7.30;;;4.13;;
65691;SDS011;52411;52.716;6.696;2024-02-15T07:35:43;9.52;;;4.13;;
65691;SDS011;52411;52.716;6.696;2024-02-15T07:38:09;8.93;;;4.20;;
65691;SDS011;52411;52.716;6.696;2024-02-15T07:40:35;9.98;;;5.20;;
65691;SDS011;52411;52.716;6.696;2024-02-15T07:43:00;9.20;;;4.78;;
65691;SDS011;52411;52.716;6.696;2024-02-15T07:45:28;10.82;;;5.15;;
65691;SDS011;52411;52.716;6.696;2024-02-15T07:47:54;10.35;;;4.88;;
65691;SDS011;52411;52.716;6.696;2024-02-15T07:50:20;14.43;;;4.78;;
65691;SDS011;52411;52.716;6.696;2024-02-15T07:52:47;11.98;;;4.20;;
65691;SDS011;52411;52.716;6.696;2024-02-15T07:55:13;10.07;;;4.70;;
65691;SDS011;52411;52.716;6.696;2024-02-15T08:00:14;11.18;;;5.78;;
65691;SDS011;52411;52.716;6.696;2024-02-15T08:02:41;9.70;;;4.22;;
65691;SDS011;52411;52.716;6.696;2024-02-15T08:05:09;9.88;;;4.38;;
65691;SDS011;52411;52.716;6.696;2024-02-15T08:07:40;12.52;;;4.70;;
65691;SDS011;52411;52.716;6.696;2024-02-15T08:13:51;10.63;;;4.85;;
65691;SDS011;52411;52.716;6.696;2024-02-15T08:16:24;9.32;;;4.40;;
65691;SDS011;52411;52.716;6.696;2024-02-15T08:18:52;9.15;;;4.60;;
65691;SDS011;52411;52.716;6.696;2024-02-15T08:21:32;10.93;;;5.00;;
65691;SDS011;52411;52.716;6.696;2024-02-15T08:24:00;8.00;;;4.18;;
65691;SDS011;52411;52.716;6.696;2024-02-15T08:26:30;8.00;;;4.63;;
65691;SDS011;52411;52.716;6.696;2024-02-15T08:29:03;7.72;;;4.28;;
65691;SDS011;52411;52.716;6.696;2024-02-15T08:31:29;8.32;;;4.60;;
65691;SDS011;52411;52.716;6.696;2024-02-15T08:33:56;8.18;;;4.72;;
65691;SDS011;52411;52.716;6.696;2024-02-15T08:36:22;8.48;;;4.00;;
65691;SDS011;52411;52.716;6.696;2024-02-15T08:38:49;8.50;;;4.22;;
65691;SDS011;52411;52.716;6.696;2024-02-15T08:41:15;8.23;;;4.47;;
65691;SDS011;52411;52.716;6.696;2024-02-15T08:43:42;10.82;;;3.85;;
65691;SDS011;52411;52.716;6.696;2024-02-15T08:46:08;7.63;;;3.85;;
65691;SDS011;52411;52.716;6.696;2024-02-15T08:48:35;6.80;;;3.85;;
65691;SDS011;52411;52.716;6.696;2024-02-15T08:51:01;7.80;;;3.60;;
65691;SDS011;52411;52.716;6.696;2024-02-15T08:53:27;7.47;;;4.20;;
65691;SDS011;52411;52.716;6.696;2024-02-15T08:55:53;9.02;;;4.32;;
65691;SDS011;52411;52.716;6.696;2024-02-15T08:58:19;7.32;;;3.95;;
65691;SDS011;52411;52.716;6.696;2024-02-15T09:00:46;7.43;;;4.10;;
65691;SDS011;52411;52.716;6.696;2024-02-15T09:03:12;8.43;;;3.72;;
65691;SDS011;52411;52.716;6.696;2024-02-15T09:05:40;8.57;;;3.83;;
65691;SDS011;52411;52.716;6.696;2024-02-15T09:08:07;8.52;;;3.95;;
65691;SDS011;52411;52.716;6.696;2024-02-15T09:10:33;6.97;;;3.42;;
65691;SDS011;52411;52.716;6.696;2024-02-15T09:13:01;6.70;;;3.72;;
65691;SDS011;52411;52.716;6.696;2024-02-15T09:15:26;6.03;;;3.45;;
65691;SDS011;52411;52.716;6.696;2024-02-15T09:17:53;7.22;;;3.70;;
65691;SDS011;52411;52.716;6.696;2024-02-15T09:20:19;7.57;;;3.05;;
65691;SDS011;52411;52.716;6.696;2024-02-15T09:22:49;7.05;;;3.83;;
65691;SDS011;52411;52.716;6.696;2024-02-15T09:25:15;6.25;;;3.33;;
65691;SDS011;52411;52.716;6.696;2024-02-15T09:27:44;5.32;;;3.15;;
65691;SDS011;52411;52.716;6.696;2024-02-15T09:30:13;5.78;;;3.25;;
65691;SDS011;52411;52.716;6.696;2024-02-15T09:32:40;5.18;;;2.85;;
65691;SDS011;52411;52.716;6.696;2024-02-15T09:35:06;6.25;;;3.40;;
65691;SDS011;52411;52.716;6.696;2024-02-15T09:37:37;5.97;;;3.03;;
65691;SDS011;52411;52.716;6.696;2024-02-15T09:40:07;5.30;;;2.80;;
65691;SDS011;52411;52.716;6.696;2024-02-15T09:42:35;6.30;;;3.08;;
65691;SDS011;52411;52.716;6.696;2024-02-15T09:45:01;6.20;;;2.90;;
65691;SDS011;52411;52.716;6.696;2024-02-15T09:47:35;5.30;;;2.90;;
65691;SDS011;52411;52.716;6.696;2024-02-15T09:50:02;5.70;;;2.75;;
65691;SDS011;52411;52.716;6.696;2024-02-15T09:52:36;4.78;;;2.40;;
65691;SDS011;52411;52.716;6.696;2024-02-15T09:55:04;6.28;;;2.75;;
65691;SDS011;52411;52.716;6.696;2024-02-15T09:57:31;5.97;;;2.83;;
65691;SDS011;52411;52.716;6.696;2024-02-15T09:59:58;4.65;;;2.50;;
65691;SDS011;52411;52.716;6.696;2024-02-15T10:02:25;4.78;;;2.70;;
65691;SDS011;52411;52.716;6.696;2024-02-15T10:04:52;4.78;;;2.42;;
65691;SDS011;52411;52.716;6.696;2024-02-15T10:07:22;5.22;;;2.60;;
65691;SDS011;52411;52.716;6.696;2024-02-15T10:09:52;5.20;;;2.83;;
65691;SDS011;52411;52.716;6.696;2024-02-15T10:12:18;5.03;;;2.53;;
65691;SDS011;52411;52.716;6.696;2024-02-15T10:14:49;4.97;;;2.40;;
65691;SDS011;52411;52.716;6.696;2024-02-15T10:17:16;4.00;;;2.42;;
65691;SDS011;52411;52.716;6.696;2024-02-15T10:19:44;5.03;;;2.53;;
65691;SDS011;52411;52.716;6.696;2024-02-15T10:22:11;4.50;;;2.47;;
65691;SDS011;52411;52.716;6.696;2024-02-15T10:24:39;4.00;;;2.55;;
65691;SDS011;52411;52.716;6.696;2024-02-15T10:27:06;4.65;;;2.50;;
65691;SDS011;52411;52.716;6.696;2024-02-15T10:29:32;3.70;;;2.40;;
65691;SDS011;52411;52.716;6.696;2024-02-15T10:32:02;4.55;;;2.38;;
65691;SDS011;52411;52.716;6.696;2024-02-15T10:34:29;3.80;;;1.95;;
65691;SDS011;52411;52.716;6.696;2024-02-15T10:37:12;3.53;;;2.40;;
65691;SDS011;52411;52.716;6.696;2024-02-15T10:39:39;4.05;;;2.22;;
65691;SDS011;52411;52.716;6.696;2024-02-15T10:42:07;3.97;;;2.38;;
65691;SDS011;52411;52.716;6.696;2024-02-15T10:44:36;3.22;;;1.90;;
65691;SDS011;52411;52.716;6.696;2024-02-15T10:47:03;3.45;;;1.95;;
65691;SDS011;52411;52.716;6.696;2024-02-15T10:49:32;3.85;;;2.50;;
65691;SDS011;52411;52.716;6.696;2024-02-15T10:52:01;3.83;;;1.95;;
65691;SDS011;52411;52.716;6.696;2024-02-15T10:54:43;3.72;;;2.05;;
65691;SDS011;52411;52.716;6.696;2024-02-15T10:57:12;3.17;;;1.70;;
65691;SDS011;52411;52.716;6.696;2024-02-15T10:59:42;3.70;;;2.10;;
65691;SDS011;52411;52.716;6.696;2024-02-15T11:02:29;3.25;;;2.00;;
65691;SDS011;52411;52.716;6.696;2024-02-15T11:05:02;3.35;;;1.90;;
65691;SDS011;52411;52.716;6.696;2024-02-15T11:07:30;2.78;;;1.70;;
65691;SDS011;52411;52.716;6.696;2024-02-15T11:09:56;3.03;;;1.98;;
65691;SDS011;52411;52.716;6.696;2024-02-15T11:12:23;4.28;;;2.00;;
65691;SDS011;52411;52.716;6.696;2024-02-15T11:14:52;2.83;;;1.60;;
65691;SDS011;52411;52.716;6.696;2024-02-15T11:18:01;2.22;;;1.48;;
65691;SDS011;52411;52.716;6.696;2024-02-15T11:23:02;3.08;;;1.92;;
65691;SDS011;52411;52.716;6.696;2024-02-15T11:25:32;2.50;;;1.88;;
65691;SDS011;52411;52.716;6.696;2024-02-15T11:30:48;3.15;;;1.95;;
65691;SDS011;52411;52.716;6.696;2024-02-15T11:36:09;2.63;;;1.95;;
65691;SDS011;52411;52.716;6.696;2024-02-15T11:38:37;3.55;;;1.92;;
65691;SDS011;52411;52.716;6.696;2024-02-15T11:41:08;3.88;;;1.75;;
65691;SDS011;52411;52.716;6.696;2024-02-15T11:46:21;3.55;;;2.17;;
65691;SDS011;52411;52.716;6.696;2024-02-15T11:48:50;3.60;;;2.17;;
65691;SDS011;52411;52.716;6.696;2024-02-15T11:54:01;2.83;;;2.00;;
65691;SDS011;52411;52.716;6.696;2024-02-15T11:56:55;3.20;;;2.05;;
65691;SDS011;52411;52.716;6.696;2024-02-15T11:59:42;3.13;;;2.10;;
65691;SDS011;52411;52.716;6.696;2024-02-15T12:02:27;5.10;;;2.03;;
65691;SDS011;52411;52.716;6.696;2024-02-15T12:05:11;3.50;;;2.13;;
65691;SDS011;52411;52.716;6.696;2024-02-15T12:07:58;3.30;;;2.20;;
65691;SDS011;52411;52.716;6.696;2024-02-15T12:10:42;3.67;;;2.20;;
65691;SDS011;52411;52.716;6.696;2024-02-15T12:13:27;2.92;;;1.85;;
65691;SDS011;52411;52.716;6.696;2024-02-15T12:16:15;4.18;;;2.17;;
65691;SDS011;52411;52.716;6.696;2024-02-15T12:19:02;4.57;;;2.55;;
65691;SDS011;52411;52.716;6.696;2024-02-15T12:21:28;4.25;;;2.35;;
65691;SDS011;52411;52.716;6.696;2024-02-15T12:23:54;4.90;;;2.47;;
65691;SDS011;52411;52.716;6.696;2024-02-15T12:26:21;4.25;;;2.70;;
65691;SDS011;52411;52.716;6.696;2024-02-15T12:28:52;6.15;;;2.80;;
65691;SDS011;52411;52.716;6.696;2024-02-15T12:31:21;3.80;;;2.63;;
65691;SDS011;52411;52.716;6.696;2024-02-15T12:33:58;4.45;;;3.13;;
65691;SDS011;52411;52.716;6.696;2024-02-15T12:36:31;5.78;;;2.85;;
65691;SDS011;52411;52.716;6.696;2024-02-15T12:39:02;5.65;;;2.65;;
65691;SDS011;52411;52.716;6.696;2024-02-15T12:41:35;4.57;;;2.80;;
65691;SDS011;52411;52.716;6.696;2024-02-15T12:44:06;8.02;;;3.13;;
65691;SDS011;52411;52.716;6.696;2024-02-15T12:46:33;4.25;;;2.83;;
65691;SDS011;52411;52.716;6.696;2024-02-15T12:51:50;4.85;;;2.90;;
65691;SDS011;52411;52.716;6.696;2024-02-15T12:54:23;4.57;;;3.08;;
65691;SDS011;52411;52.716;6.696;2024-02-15T12:56:49;5.78;;;3.50;;
65691;SDS011;52411;52.716;6.696;2024-02-15T12:59:18;5.05;;;3.30;;
65691;SDS011;52411;52.716;6.696;2024-02-15T13:01:48;5.35;;;3.67;;
65691;SDS011;52411;52.716;6.696;2024-02-15T13:04:23;5.07;;;2.80;;
65691;SDS011;52411;52.716;6.696;2024-02-15T13:06:50;4.68;;;2.72;;
65691;SDS011;52411;52.716;6.696;2024-02-15T13:09:16;7.00;;;3.17;;
65691;SDS011;52411;52.716;6.696;2024-02-15T13:11:41;5.43;;;3.28;;
65691;SDS011;52411;52.716;6.696;2024-02-15T13:14:10;6.65;;;3.53;;
65691;SDS011;52411;52.716;6.696;2024-02-15T13:16:36;5.90;;;3.50;;
65691;SDS011;52411;52.716;6.696;2024-02-15T13:19:02;8.45;;;2.90;;
65691;SDS011;52411;52.716;6.696;2024-02-15T13:21:28;7.78;;;3.30;;
65691;SDS011;52411;52.716;6.696;2024-02-15T13:23:55;6.22;;;3.20;;
65691;SDS011;52411;52.716;6.696;2024-02-15T13:26:21;5.63;;;3.08;;
65691;SDS011;52411;52.716;6.696;2024-02-15T13:28:50;5.15;;;3.10;;
65691;SDS011;52411;52.716;6.696;2024-02-15T13:31:17;7.00;;;3.42;;
65691;SDS011;52411;52.716;6.696;2024-02-15T13:33:43;6.45;;;3.30;;
65691;SDS011;52411;52.716;6.696;2024-02-15T13:36:08;5.93;;;3.60;;
65691;SDS011;52411;52.716;6.696;2024-02-15T13:38:38;5.72;;;2.85;;
65691;SDS011;52411;52.716;6.696;2024-02-15T13:41:04;6.05;;;3.55;;
65691;SDS011;52411;52.716;6.696;2024-02-15T13:43:29;4.97;;;3.38;;
65691;SDS011;52411;52.716;6.696;2024-02-15T13:45:57;4.50;;;3.05;;
65691;SDS011;52411;52.716;6.696;2024-02-15T13:48:23;8.98;;;3.53;;
65691;SDS011;52411;52.716;6.696;2024-02-15T13:50:51;7.60;;;3.42;;
65691;SDS011;52411;52.716;6.696;2024-02-15T13:53:18;5.82;;;3.70;;
65691;SDS011;52411;52.716;6.696;2024-02-15T13:55:43;7.03;;;3.50;;
65691;SDS011;52411;52.716;6.696;2024-02-15T13:58:09;8.02;;;3.45;;
65691;SDS011;52411;52.716;6.696;2024-02-15T14:00:37;6.57;;;3.65;;
65691;SDS011;52411;52.716;6.696;2024-02-15T14:03:07;6.57;;;3.67;;
65691;SDS011;52411;52.716;6.696;2024-02-15T14:05:35;5.93;;;3.25;;
65691;SDS011;52411;52.716;6.696;2024-02-15T14:08:04;7.28;;;3.40;;
65691;SDS011;52411;52.716;6.696;2024-02-15T14:10:33;5.13;;;3.63;;
65691;SDS011;52411;52.716;6.696;2024-02-15T14:15:31;7.68;;;3.40;;
65691;SDS011;52411;52.716;6.696;2024-02-15T14:18:08;8.55;;;3.83;;
65691;SDS011;52411;52.716;6.696;2024-02-15T14:20:38;8.95;;;3.35;;
65691;SDS011;52411;52.716;6.696;2024-02-15T14:23:04;5.85;;;3.22;;
65691;SDS011;52411;52.716;6.696;2024-02-15T14:25:31;6.28;;;3.45;;
65691;SDS011;52411;52.716;6.696;2024-02-15T14:27:57;6.75;;;3.63;;
65691;SDS011;52411;52.716;6.696;2024-02-15T14:30:24;6.70;;;3.92;;
65691;SDS011;52411;52.716;6.696;2024-02-15T14:33:08;6.32;;;3.97;;
65691;SDS011;52411;52.716;6.696;2024-02-15T14:35:36;6.00;;;3.72;;
65691;SDS011;52411;52.716;6.696;2024-02-15T14:38:04;5.75;;;3.35;;
65691;SDS011;52411;52.716;6.696;2024-02-15T14:40:33;5.47;;;3.60;;
65691;SDS011;52411;52.716;6.696;2024-02-15T14:43:00;8.70;;;3.30;;
65691;SDS011;52411;52.716;6.696;2024-02-15T14:45:26;7.18;;;3.72;;
65691;SDS011;52411;52.716;6.696;2024-02-15T14:47:53;8.02;;;3.47;;
65691;SDS011;52411;52.716;6.696;2024-02-15T14:50:18;7.45;;;3.42;;
65691;SDS011;52411;52.716;6.696;2024-02-15T14:52:45;6.50;;;3.60;;
65691;SDS011;52411;52.716;6.696;2024-02-15T14:55:13;8.40;;;3.53;;
65691;SDS011;52411;52.716;6.696;2024-02-15T14:57:38;6.22;;;3.50;;
65691;SDS011;52411;52.716;6.696;2024-02-15T15:00:05;5.65;;;3.50;;
65691;SDS011;52411;52.716;6.696;2024-02-15T15:02:37;7.05;;;3.30;;
65691;SDS011;52411;52.716;6.696;2024-02-15T15:05:03;5.13;;;3.15;;
65691;SDS011;52411;52.716;6.696;2024-02-15T15:07:48;5.80;;;3.22;;
65691;SDS011;52411;52.716;6.696;2024-02-15T15:10:32;5.72;;;3.25;;
65691;SDS011;52411;52.716;6.696;2024-02-15T15:13:16;5.13;;;3.08;;
65691;SDS011;52411;52.716;6.696;2024-02-15T15:15:44;5.80;;;3.08;;
65691;SDS011;52411;52.716;6.696;2024-02-15T15:18:11;6.55;;;3.05;;
65691;SDS011;52411;52.716;6.696;2024-02-15T15:20:36;5.32;;;2.85;;
65691;SDS011;52411;52.716;6.696;2024-02-15T15:23:02;5.95;;;3.10;;
65691;SDS011;52411;52.716;6.696;2024-02-15T15:25:29;3.90;;;2.50;;
65691;SDS011;52411;52.716;6.696;2024-02-15T15:27:56;5.20;;;2.80;;
65691;SDS011;52411;52.716;6.696;2024-02-15T15:30:23;5.30;;;2.70;;